createdAt,value
2022-12-05T00:01:18.941Z,82.28
2022-12-05T00:03:46.403Z,82.87
2022-12-05T00:06:13.033Z,83.20
2022-12-05T00:08:39.530Z,82.81
2022-12-05T00:11:12.147Z,81.63
2022-12-05T00:13:40.751Z,82.55
2022-12-05T00:16:09.759Z,82.63
2022-12-05T00:18:36.496Z,82.44
2022-12-05T00:21:03.480Z,82.89
2022-12-05T00:23:29.942Z,82.63
2022-12-05T00:25:56.814Z,82.42
2022-12-05T00:28:23.255Z,82.84
2022-12-05T00:30:49.800Z,82.38
2022-12-05T00:33:16.304Z,82.66
2022-12-05T00:35:42.759Z,82.46
2022-12-05T00:38:09.242Z,83.22
2022-12-05T00:40:36.729Z,82.66
2022-12-05T00:43:03.243Z,82.45
2022-12-05T00:45:29.868Z,81.98
2022-12-05T00:47:56.341Z,82.64
2022-12-05T00:50:22.759Z,82.93
2022-12-05T00:52:49.389Z,83.07
2022-12-05T00:55:15.813Z,82.81
2022-12-05T00:57:42.254Z,83.06
2022-12-05T01:00:09.218Z,83.63
2022-12-05T01:02:35.646Z,82.91
2022-12-05T01:05:02.176Z,82.55
2022-12-05T01:07:28.753Z,82.97
2022-12-05T01:09:55.500Z,82.36
2022-12-05T01:12:22.125Z,83.34
2022-12-05T01:14:48.655Z,83.13
2022-12-05T01:17:15.115Z,83.17
2022-12-05T01:19:41.547Z,83.04
2022-12-05T01:22:08.013Z,83.04
2022-12-05T01:24:34.426Z,82.74
2022-12-05T01:27:00.925Z,82.86
2022-12-05T01:29:27.448Z,82.65
2022-12-05T01:31:54.275Z,82.81
2022-12-05T01:34:21.222Z,83.06
2022-12-05T01:36:47.784Z,83.47
2022-12-05T01:39:14.770Z,83.07
2022-12-05T01:41:45.113Z,83.24
2022-12-05T01:44:11.634Z,83.39
2022-12-05T01:46:43.496Z,83.59
2022-12-05T01:49:14.369Z,83.47
2022-12-05T01:51:45.242Z,83.67
2022-12-05T01:54:12.849Z,83.28
2022-12-05T01:56:42.352Z,83.32
2022-12-05T01:59:11.518Z,83.58
2022-12-05T02:01:38.735Z,83.41
2022-12-05T02:04:06.218Z,83.58
2022-12-05T02:07:22.909Z,83.81
2022-12-05T02:09:51.200Z,83.93
2022-12-05T02:12:19.739Z,83.24
2022-12-05T02:15:03.697Z,84.11
2022-12-05T02:18:16.265Z,83.71
2022-12-05T02:20:54.944Z,83.79
2022-12-05T02:24:06.258Z,83.00
2022-12-05T02:26:51.269Z,83.66
2022-12-05T02:29:24.035Z,83.33
2022-12-05T02:32:10.278Z,83.57
2022-12-05T02:35:03.851Z,83.56
2022-12-05T02:37:39.292Z,83.10
2022-12-05T02:40:34.805Z,82.99
2022-12-05T02:43:05.477Z,83.63
2022-12-05T02:45:36.761Z,83.60
2022-12-05T02:48:04.673Z,83.69
2022-12-05T02:50:36.607Z,83.32
2022-12-05T02:53:13.212Z,82.86
2022-12-05T02:55:41.768Z,83.57
2022-12-05T02:58:14.477Z,83.75
2022-12-05T03:00:44.694Z,83.61
2022-12-05T03:03:18.393Z,83.75
2022-12-05T03:06:05.819Z,84.10
2022-12-05T03:08:40.119Z,84.29
2022-12-05T03:11:07.035Z,83.81
2022-12-05T03:13:41.680Z,83.85
2022-12-05T03:16:24.126Z,84.73
2022-12-05T03:19:03.234Z,83.94
2022-12-05T03:22:02.217Z,84.13
2022-12-05T03:24:30.083Z,83.62
2022-12-05T03:27:15.442Z,83.66
2022-12-05T03:29:54.359Z,83.46
2022-12-05T03:32:38.837Z,84.24
2022-12-05T03:35:14.754Z,83.76
2022-12-05T03:37:51.840Z,83.23
2022-12-05T03:40:42.817Z,83.39
2022-12-05T03:43:23.542Z,83.33
2022-12-05T03:46:09.279Z,82.86
2022-12-05T03:49:06.749Z,83.33
2022-12-05T03:51:42.510Z,83.65
2022-12-05T03:54:13.866Z,83.69
2022-12-05T03:56:54.962Z,83.45
2022-12-05T03:59:31.268Z,83.48
2022-12-05T04:02:01.285Z,83.03
2022-12-05T04:04:47.590Z,83.22
2022-12-05T04:07:17.445Z,83.38
2022-12-05T04:09:49.833Z,83.03
2022-12-05T04:12:23.577Z,83.17
2022-12-05T04:14:56.940Z,83.16
2022-12-05T04:17:37.727Z,82.58
2022-12-05T04:20:33.283Z,83.16
2022-12-05T04:23:00.721Z,83.23
2022-12-05T04:25:33.972Z,82.93
2022-12-05T04:28:25.891Z,83.02
2022-12-05T04:31:15.432Z,83.54
2022-12-05T04:34:00.379Z,83.26
2022-12-05T04:36:55.060Z,83.03
2022-12-05T04:39:34.978Z,83.29
2022-12-05T04:42:06.796Z,83.30
2022-12-05T04:44:40.152Z,83.26
2022-12-05T04:47:10.867Z,83.01
2022-12-05T04:49:40.348Z,83.53
2022-12-05T04:52:12.602Z,83.23
2022-12-05T04:54:54.814Z,83.09
2022-12-05T04:57:32.893Z,83.30
2022-12-05T05:00:00.052Z,83.68
2022-12-05T05:02:34.966Z,83.02
2022-12-05T05:05:03.628Z,82.99
2022-12-05T05:07:30.195Z,83.43
2022-12-05T05:09:57.341Z,83.28
2022-12-05T05:12:23.962Z,83.07
2022-12-05T05:14:50.397Z,83.19
2022-12-05T05:17:16.868Z,83.03
2022-12-05T05:19:43.371Z,83.15
2022-12-05T05:22:09.772Z,83.20
2022-12-05T05:24:36.217Z,83.26
2022-12-05T05:27:02.674Z,83.13
2022-12-05T05:29:29.065Z,83.42
2022-12-05T05:31:55.513Z,82.91
2022-12-05T05:34:21.966Z,83.10
2022-12-05T05:36:51.815Z,83.04
2022-12-05T05:39:18.240Z,83.10
2022-12-05T05:41:44.659Z,82.69
2022-12-05T05:44:11.108Z,83.15
2022-12-05T05:46:38.110Z,82.99
2022-12-05T05:49:05.182Z,82.99
2022-12-05T05:51:32.210Z,83.24
2022-12-05T05:53:59.256Z,83.12
2022-12-05T05:56:26.447Z,82.93
2022-12-05T05:59:01.576Z,82.89
2022-12-05T06:01:29.477Z,82.98
2022-12-05T06:03:57.129Z,83.03
2022-12-05T06:06:24.100Z,82.92
2022-12-05T06:08:50.555Z,82.49
2022-12-05T06:11:25.307Z,82.64
2022-12-05T06:13:53.852Z,82.47
2022-12-05T06:16:21.268Z,82.88
2022-12-05T06:18:49.194Z,83.03
2022-12-05T06:21:16.465Z,82.82
2022-12-05T06:23:43.064Z,82.87
2022-12-05T06:26:15.571Z,82.41
2022-12-05T06:28:42.494Z,82.53
2022-12-05T06:31:13.332Z,83.04
2022-12-05T06:33:39.943Z,82.93
2022-12-05T06:36:13.088Z,82.90
2022-12-05T06:38:42.272Z,82.49
2022-12-05T06:41:18.646Z,82.50
2022-12-05T06:43:45.400Z,82.92
2022-12-05T06:46:13.872Z,83.03
2022-12-05T06:48:40.411Z,82.94
2022-12-05T06:51:10.563Z,83.11
2022-12-05T06:53:37.128Z,82.92
2022-12-05T06:56:07.524Z,83.20
2022-12-05T06:58:34.121Z,83.23
2022-12-05T07:01:19.336Z,83.13
2022-12-05T07:03:48.210Z,83.17
2022-12-05T07:06:16.314Z,83.35
2022-12-05T07:08:43.492Z,82.65
2022-12-05T07:11:10.609Z,82.92
2022-12-05T07:13:37.158Z,83.09
2022-12-05T07:16:07.040Z,82.61
2022-12-05T07:18:34.881Z,82.79
2022-12-05T07:21:11.608Z,82.78
2022-12-05T07:23:39.877Z,82.24
2022-12-05T07:26:08.189Z,82.45
2022-12-05T07:28:34.695Z,81.99
2022-12-05T07:31:07.501Z,82.18
2022-12-05T07:33:34.137Z,82.71
2022-12-05T07:36:06.607Z,82.75
2022-12-05T07:38:33.742Z,83.13
2022-12-05T07:41:07.891Z,82.57
2022-12-05T07:43:38.116Z,83.00
2022-12-05T07:46:06.868Z,83.32
2022-12-05T07:48:33.762Z,83.43
2022-12-05T07:51:05.199Z,82.79
2022-12-05T07:53:32.578Z,82.39
2022-12-05T07:56:00.609Z,82.89
2022-12-05T07:58:28.981Z,82.71
2022-12-05T08:00:56.365Z,83.05
2022-12-05T08:03:23.037Z,82.92
2022-12-05T08:05:50.000Z,83.04
2022-12-05T08:08:16.620Z,82.55
2022-12-05T08:10:43.145Z,82.14
2022-12-05T08:13:09.640Z,83.02
2022-12-05T08:15:36.703Z,82.58
2022-12-05T08:18:03.783Z,82.64
2022-12-05T08:20:30.634Z,82.04
2022-12-05T08:22:57.297Z,82.04
2022-12-05T08:25:23.863Z,82.89
2022-12-05T08:27:50.348Z,82.40
2022-12-05T08:30:17.123Z,82.62
2022-12-05T08:32:43.605Z,82.59
2022-12-05T08:35:10.493Z,82.73
2022-12-05T08:37:37.016Z,82.77
2022-12-05T08:40:04.822Z,82.61
2022-12-05T08:42:31.598Z,82.97
2022-12-05T08:44:58.239Z,82.89
2022-12-05T08:47:24.925Z,83.19
2022-12-05T08:49:51.370Z,82.61
2022-12-05T08:52:17.818Z,82.49
2022-12-05T08:54:44.883Z,82.45
2022-12-05T08:57:11.393Z,82.09
2022-12-05T08:59:37.855Z,82.31
2022-12-05T09:02:04.516Z,82.07
2022-12-05T09:04:31.193Z,82.25
2022-12-05T09:06:57.896Z,82.96
2022-12-05T09:09:24.388Z,82.58
2022-12-05T09:11:51.142Z,82.52
2022-12-05T09:14:18.418Z,83.16
2022-12-05T09:16:46.732Z,82.21
2022-12-05T09:19:16.768Z,81.82
2022-12-05T09:21:44.005Z,82.00
2022-12-05T09:24:13.008Z,82.24
2022-12-05T09:26:40.660Z,82.34
2022-12-05T09:29:10.079Z,82.09
2022-12-05T09:31:42.966Z,82.66
2022-12-05T09:34:09.912Z,82.01
2022-12-05T09:36:36.421Z,82.69
2022-12-05T09:39:06.224Z,82.42
2022-12-05T09:42:00.322Z,82.63
2022-12-05T09:44:42.064Z,82.22
2022-12-05T09:47:26.399Z,81.63
2022-12-05T09:50:13.762Z,82.21
2022-12-05T09:53:04.053Z,81.89
2022-12-05T09:55:35.970Z,81.35
2022-12-05T09:58:05.161Z,82.12
2022-12-05T10:00:33.323Z,81.86
2022-12-05T10:03:18.857Z,81.81
2022-12-05T10:06:11.469Z,82.54
2022-12-05T10:08:56.258Z,81.83
2022-12-05T10:11:34.373Z,82.46
2022-12-05T10:14:06.661Z,81.94
2022-12-05T10:16:39.372Z,82.08
2022-12-05T10:19:13.487Z,81.69
2022-12-05T10:21:50.797Z,81.55
2022-12-05T10:24:27.073Z,81.28
2022-12-05T10:27:02.476Z,81.66
2022-12-05T10:29:40.684Z,80.77
2022-12-05T10:32:22.306Z,81.52
2022-12-05T10:34:50.421Z,80.80
2022-12-05T10:37:19.606Z,80.88
2022-12-05T10:39:48.352Z,81.24
2022-12-05T10:42:29.836Z,81.25
2022-12-05T10:45:03.880Z,81.31
2022-12-05T10:47:32.128Z,80.63
2022-12-05T10:50:04.794Z,81.02
2022-12-05T10:52:32.139Z,80.47
2022-12-05T10:55:06.371Z,80.57
2022-12-05T10:57:32.913Z,80.40
2022-12-05T11:00:15.304Z,79.73
2022-12-05T11:02:43.888Z,80.29
2022-12-05T11:05:10.985Z,80.39
2022-12-05T11:07:49.470Z,80.69
2022-12-05T11:10:33.577Z,80.67
2022-12-05T11:13:00.922Z,80.87
2022-12-05T11:15:30.350Z,80.96
2022-12-05T11:18:16.931Z,80.64
2022-12-05T11:20:43.393Z,80.61
2022-12-05T11:23:36.143Z,80.97
2022-12-05T11:26:03.376Z,80.11
2022-12-05T11:28:36.389Z,80.36
2022-12-05T11:31:10.679Z,79.95
2022-12-05T11:33:37.639Z,80.32
2022-12-05T11:36:35.864Z,79.94
2022-12-05T11:39:02.478Z,80.34
2022-12-05T11:41:38.318Z,80.11
2022-12-05T11:44:30.644Z,80.01
2022-12-05T11:46:57.055Z,80.04
2022-12-05T11:49:26.397Z,79.58
2022-12-05T11:52:04.695Z,80.00
2022-12-05T11:57:52.111Z,80.22
2022-12-05T12:00:32.195Z,79.84
2022-12-05T12:03:07.891Z,79.70
2022-12-05T12:05:42.494Z,80.15
2022-12-05T12:08:08.957Z,79.50
2022-12-05T12:10:59.584Z,79.84
2022-12-05T12:13:54.223Z,79.22
2022-12-05T12:16:20.673Z,79.86
2022-12-05T12:19:08.671Z,79.59
2022-12-05T12:22:06.842Z,80.19
2022-12-05T12:25:04.710Z,79.75
2022-12-05T12:27:43.752Z,79.26
2022-12-05T12:30:19.962Z,80.13
2022-12-05T12:32:52.224Z,79.76
2022-12-05T12:35:21.746Z,79.88
2022-12-05T12:38:06.719Z,79.94
2022-12-05T12:41:15.219Z,79.77
2022-12-05T12:43:57.221Z,79.29
2022-12-05T12:46:55.311Z,79.75
2022-12-05T12:49:47.914Z,79.79
2022-12-05T12:52:23.438Z,80.01
2022-12-05T12:55:05.404Z,80.32
2022-12-05T12:57:58.163Z,80.20
2022-12-05T13:00:42.884Z,80.87
2022-12-05T13:03:27.301Z,79.62
2022-12-05T13:06:00.950Z,79.51
2022-12-05T13:08:38.113Z,80.18
2022-12-05T13:11:09.533Z,80.80
2022-12-05T13:13:45.123Z,81.07
2022-12-05T13:16:16.902Z,80.12
2022-12-05T13:18:43.406Z,79.21
2022-12-05T13:21:10.268Z,80.05
2022-12-05T13:23:45.446Z,79.67
2022-12-05T13:26:13.152Z,80.13
2022-12-05T13:28:48.925Z,79.51
2022-12-05T13:31:17.970Z,79.48
2022-12-05T13:33:49.833Z,79.48
2022-12-05T13:36:39.158Z,79.55
2022-12-05T13:39:34.458Z,78.70
2022-12-05T13:42:16.289Z,79.07
2022-12-05T13:44:45.418Z,79.08
2022-12-05T13:47:42.517Z,79.28
2022-12-05T13:50:18.403Z,79.03
2022-12-05T13:52:55.225Z,78.81
2022-12-05T13:55:36.948Z,78.82
2022-12-05T13:58:32.833Z,79.21
2022-12-05T14:01:27.798Z,79.47
2022-12-05T14:03:57.460Z,81.63
2022-12-05T14:06:40.131Z,81.00
2022-12-05T14:09:18.351Z,80.01
2022-12-05T14:12:12.870Z,79.46
2022-12-05T14:14:57.632Z,80.34
2022-12-05T14:17:33.039Z,79.76
2022-12-05T14:20:36.955Z,80.24
2022-12-05T14:23:21.506Z,79.86
2022-12-05T14:26:09.026Z,79.96
2022-12-05T14:28:47.829Z,79.83
2022-12-05T14:31:27.319Z,80.35
2022-12-05T14:34:26.409Z,79.71
2022-12-05T14:37:00.218Z,80.49
2022-12-05T14:39:35.732Z,79.74
2022-12-05T14:42:05.714Z,80.89
2022-12-05T14:44:32.671Z,80.50
2022-12-05T14:47:05.736Z,80.43
2022-12-05T14:50:12.590Z,80.77
2022-12-05T14:52:41.074Z,80.90
2022-12-05T14:55:14.387Z,79.97
2022-12-05T14:57:48.524Z,79.69
2022-12-05T15:00:22.331Z,78.99
2022-12-05T15:02:52.663Z,79.16
2022-12-05T15:05:25.901Z,78.95
2022-12-05T15:07:54.912Z,79.79
2022-12-05T15:10:34.856Z,79.26
2022-12-05T15:13:08.116Z,79.80
2022-12-05T15:15:40.406Z,79.89
2022-12-05T15:18:33.464Z,79.86
2022-12-05T15:21:09.549Z,79.76
2022-12-05T15:23:44.065Z,80.22
2022-12-05T15:26:46.009Z,79.65
2022-12-05T15:29:25.576Z,79.69
2022-12-05T15:32:10.540Z,79.09
2022-12-05T15:34:39.674Z,79.25
2022-12-05T15:37:37.314Z,79.59
2022-12-05T15:40:20.743Z,79.19
2022-12-05T15:42:55.980Z,79.36
2022-12-05T15:45:27.913Z,80.02
2022-12-05T15:47:57.228Z,80.12
2022-12-05T15:50:43.310Z,79.25
2022-12-05T15:53:18.307Z,79.27
2022-12-05T15:55:49.289Z,79.50
2022-12-05T15:58:26.671Z,79.78
2022-12-05T16:01:11.668Z,79.88
2022-12-05T16:04:00.365Z,79.51
2022-12-05T16:06:31.921Z,79.60
2022-12-05T16:08:59.399Z,79.94
2022-12-05T16:11:26.671Z,80.14
2022-12-05T16:13:59.112Z,79.87
2022-12-05T16:16:29.983Z,80.58
2022-12-05T16:18:59.134Z,79.20
2022-12-05T16:21:41.333Z,83.58
2022-12-05T16:24:18.211Z,83.70
2022-12-05T16:26:57.992Z,89.05
2022-12-05T16:29:28.283Z,88.43
2022-12-05T16:32:00.804Z,86.78
2022-12-05T16:34:29.826Z,84.58
2022-12-05T16:36:57.582Z,83.07
2022-12-05T16:39:28.074Z,83.23
2022-12-05T16:41:55.150Z,82.27
2022-12-05T16:44:47.381Z,82.45
2022-12-05T16:47:42.182Z,84.00
2022-12-05T16:50:22.795Z,84.99
2022-12-05T16:52:50.047Z,83.01
2022-12-05T16:55:17.051Z,82.57
2022-12-05T16:57:43.513Z,84.10
2022-12-05T17:00:14.826Z,83.03
2022-12-05T17:02:41.599Z,82.23
2022-12-05T17:05:16.937Z,82.65
2022-12-05T17:07:43.470Z,83.37
2022-12-05T17:10:10.149Z,82.88
2022-12-05T17:12:36.689Z,83.18
2022-12-05T17:15:03.309Z,82.71
2022-12-05T17:17:29.806Z,82.64
2022-12-05T17:19:56.295Z,83.57
2022-12-05T17:22:23.281Z,84.16
2022-12-05T17:24:49.699Z,83.48
2022-12-05T17:27:16.137Z,82.64
2022-12-05T17:29:42.767Z,82.86
2022-12-05T17:32:11.178Z,82.54
2022-12-05T17:34:37.792Z,82.25
2022-12-05T17:37:04.225Z,81.61
2022-12-05T17:39:30.769Z,81.27
2022-12-05T17:41:57.231Z,81.91
2022-12-05T17:44:23.925Z,81.92
2022-12-05T17:46:50.504Z,81.77
2022-12-05T17:49:17.900Z,81.58
2022-12-05T17:52:13.305Z,81.69
2022-12-05T17:54:31.400Z,81.20
2022-12-05T17:56:57.810Z,81.92
2022-12-05T17:59:24.411Z,81.49
2022-12-05T18:01:50.851Z,81.96
2022-12-05T18:04:22.688Z,81.46
2022-12-05T18:06:49.720Z,82.19
2022-12-05T18:09:16.208Z,81.92
2022-12-05T18:11:42.667Z,81.43
2022-12-05T18:14:09.766Z,81.64
2022-12-05T18:16:36.341Z,82.20
2022-12-05T18:19:02.797Z,82.52
2022-12-05T18:21:29.277Z,82.01
2022-12-05T18:23:55.710Z,82.39
2022-12-05T18:26:22.339Z,82.34
2022-12-05T18:28:48.764Z,83.01
2022-12-05T18:31:16.761Z,81.87
2022-12-05T18:33:45.307Z,82.72
2022-12-05T18:36:18.569Z,81.90
2022-12-05T18:38:53.509Z,82.03
2022-12-05T18:41:20.932Z,81.82
2022-12-05T18:43:47.399Z,81.61
2022-12-05T18:46:13.834Z,82.00
2022-12-05T18:48:44.784Z,82.08
2022-12-05T18:51:19.587Z,81.62
2022-12-05T18:53:52.259Z,82.09
2022-12-05T18:56:25.432Z,82.28
2022-12-05T18:58:58.513Z,81.60
2022-12-05T19:01:26.884Z,80.89
2022-12-05T19:03:54.195Z,81.33
2022-12-05T19:06:22.948Z,80.74
2022-12-05T19:08:52.927Z,80.51
2022-12-05T19:11:20.097Z,80.36
2022-12-05T19:13:47.705Z,80.79
2022-12-05T19:16:16.764Z,80.52
2022-12-05T19:18:43.402Z,81.02
2022-12-05T19:21:10.003Z,80.52
2022-12-05T19:23:36.561Z,80.64
2022-12-05T19:26:06.114Z,80.34
2022-12-05T19:28:36.833Z,80.72
2022-12-05T19:31:04.746Z,80.98
2022-12-05T19:33:33.449Z,80.99
2022-12-05T19:36:05.838Z,81.63
2022-12-05T19:38:34.282Z,81.02
2022-12-05T19:41:01.886Z,81.43
2022-12-05T19:43:30.218Z,81.22
2022-12-05T19:45:57.403Z,81.09
2022-12-05T19:48:25.031Z,80.08
2022-12-05T19:50:54.298Z,80.21
2022-12-05T19:53:21.059Z,79.96
2022-12-05T19:55:47.478Z,79.75
2022-12-05T19:58:13.981Z,79.95
2022-12-05T20:00:41.144Z,79.69
2022-12-05T20:03:12.039Z,79.80
2022-12-05T20:05:38.781Z,79.36
2022-12-05T20:08:05.360Z,79.58
2022-12-05T20:10:34.098Z,79.21
2022-12-05T20:13:02.637Z,79.56
2022-12-05T20:15:32.800Z,79.99
2022-12-05T20:17:59.298Z,80.00
2022-12-05T20:20:25.875Z,80.08
2022-12-05T20:22:53.607Z,80.07
2022-12-05T20:25:20.145Z,80.06
2022-12-05T20:27:46.713Z,79.79
2022-12-05T20:30:13.358Z,79.60
2022-12-05T20:32:39.806Z,79.23
2022-12-05T20:35:06.547Z,79.62
2022-12-05T20:37:35.504Z,78.74
2022-12-05T20:40:02.600Z,79.31
2022-12-05T20:42:29.124Z,78.66
2022-12-05T20:44:55.677Z,78.54
2022-12-05T20:47:22.196Z,79.68
2022-12-05T20:49:48.676Z,80.19
2022-12-05T20:52:15.131Z,79.38
2022-12-05T20:54:41.522Z,79.12
2022-12-05T20:57:08.485Z,78.51
2022-12-05T20:59:34.931Z,79.51
2022-12-05T21:02:01.374Z,78.95
2022-12-05T21:04:28.063Z,78.86
2022-12-05T21:06:54.680Z,78.79
2022-12-05T21:09:30.071Z,78.21
2022-12-05T21:11:56.547Z,78.26
2022-12-05T21:14:24.122Z,78.12
2022-12-05T21:16:52.739Z,79.20
2022-12-05T21:19:20.225Z,79.33
2022-12-05T21:21:46.829Z,79.36
2022-12-05T21:24:13.399Z,78.76
2022-12-05T21:26:40.144Z,78.96
2022-12-05T21:29:08.302Z,78.63
2022-12-05T21:31:37.447Z,79.11
2022-12-05T21:34:06.877Z,79.52
2022-12-05T21:36:34.761Z,79.50
2022-12-05T21:39:01.317Z,79.56
2022-12-05T21:41:27.906Z,79.19
2022-12-05T21:43:55.793Z,77.84
2022-12-05T21:46:24.526Z,77.98
2022-12-05T21:48:51.317Z,78.39
2022-12-05T21:51:17.785Z,78.72
2022-12-05T21:53:44.409Z,79.64
2022-12-05T21:56:15.596Z,79.48
2022-12-05T21:58:43.584Z,79.67
2022-12-05T22:01:11.553Z,78.67
2022-12-05T22:03:38.726Z,79.08
2022-12-05T22:06:11.251Z,78.45
2022-12-05T22:08:38.854Z,79.87
2022-12-05T22:11:14.467Z,79.24
2022-12-05T22:13:41.772Z,78.56
2022-12-05T22:16:09.009Z,78.07
2022-12-05T22:18:36.179Z,78.15
2022-12-05T22:21:14.364Z,78.93
2022-12-05T22:23:41.167Z,78.69
2022-12-05T22:26:13.327Z,79.47
2022-12-05T22:28:40.512Z,78.69
2022-12-05T22:31:09.210Z,77.87
2022-12-05T22:33:36.713Z,78.01
2022-12-05T22:36:05.684Z,77.64
2022-12-05T22:38:35.180Z,77.37
2022-12-05T22:41:07.231Z,77.18
2022-12-05T22:43:35.631Z,77.58
2022-12-05T22:46:07.061Z,78.56
2022-12-05T22:48:34.069Z,77.81
2022-12-05T22:51:01.418Z,77.25
2022-12-05T22:53:28.281Z,77.70
2022-12-05T22:56:00.748Z,78.19
2022-12-05T22:58:27.339Z,78.20
2022-12-05T23:00:54.133Z,77.94
2022-12-05T23:03:21.035Z,77.44
2022-12-05T23:05:47.725Z,78.49
2022-12-05T23:08:14.231Z,78.08
2022-12-05T23:10:40.761Z,78.39
2022-12-05T23:13:07.787Z,79.50
2022-12-05T23:15:37.200Z,78.39
2022-12-05T23:18:03.822Z,79.33
2022-12-05T23:20:30.448Z,78.65
2022-12-05T23:22:57.322Z,78.72
2022-12-05T23:25:23.852Z,78.52
2022-12-05T23:27:50.365Z,77.60
2022-12-05T23:30:17.105Z,77.58
2022-12-05T23:32:43.570Z,77.35
2022-12-05T23:35:10.936Z,77.29
2022-12-05T23:37:37.452Z,77.62
2022-12-05T23:40:05.210Z,77.75
2022-12-05T23:42:31.704Z,78.04
2022-12-05T23:44:58.157Z,77.72
2022-12-05T23:47:24.595Z,77.51
2022-12-05T23:49:51.063Z,77.60
2022-12-05T23:52:17.477Z,78.61
2022-12-05T23:54:44.306Z,78.42
2022-12-05T23:57:14.725Z,78.87
2022-12-05T23:59:43.910Z,78.31
